createdAt,value
2023-03-27T04:38:52.732Z,8.29
2023-03-27T04:39:52.637Z,8.30
2023-03-27T04:40:52.626Z,8.35
2023-03-27T04:41:52.616Z,8.19
2023-03-27T04:45:52.577Z,8.52
2023-03-27T04:46:52.633Z,8.45
2023-03-27T04:47:52.662Z,8.41
2023-03-27T04:49:52.562Z,8.52
2023-03-27T04:50:52.584Z,8.51
2023-03-27T04:51:52.556Z,8.52
2023-03-27T04:52:52.536Z,8.51
2023-03-27T04:53:52.496Z,8.44
2023-03-27T04:54:52.554Z,8.44
2023-03-27T04:55:52.485Z,8.45
2023-03-27T04:56:52.516Z,8.41
2023-03-27T04:57:52.459Z,8.38
2023-03-27T04:58:52.455Z,8.33
2023-03-27T04:59:52.439Z,8.38
2023-03-27T05:00:52.442Z,8.47
2023-03-27T05:01:52.415Z,8.57
2023-03-27T05:02:52.658Z,8.48
2023-03-27T05:03:52.418Z,8.66
2023-03-27T05:04:52.385Z,8.52
2023-03-27T05:05:52.371Z,8.49
2023-03-27T05:06:52.366Z,8.47
2023-03-27T05:07:52.353Z,8.35
2023-03-27T05:08:52.338Z,8.47
2023-03-27T05:09:52.331Z,8.35
2023-03-27T05:10:52.349Z,8.25
2023-03-27T05:11:52.311Z,8.22
2023-03-27T05:12:52.296Z,8.19
2023-03-27T05:13:52.292Z,8.28
2023-03-27T05:14:52.276Z,8.29
2023-03-27T05:15:52.264Z,8.49
2023-03-27T05:16:52.475Z,8.63
2023-03-27T05:17:52.296Z,8.64
2023-03-27T05:18:52.231Z,8.64
2023-03-27T05:19:52.226Z,8.70
2023-03-27T05:20:52.216Z,8.62
2023-03-27T05:21:52.207Z,8.54
2023-03-27T05:22:52.196Z,8.49
2023-03-27T05:23:52.194Z,8.45
2023-03-27T05:24:52.185Z,8.51
2023-03-27T05:26:00.730Z,8.48
2023-03-27T05:26:53.196Z,8.54
2023-03-27T05:27:52.150Z,8.49
2023-03-27T05:28:52.134Z,8.51
2023-03-27T05:29:52.124Z,8.67
2023-03-27T05:30:52.168Z,8.55
2023-03-27T05:31:52.099Z,8.64
2023-03-27T05:32:52.509Z,8.69
2023-03-27T05:33:52.083Z,8.52
2023-03-27T05:34:52.070Z,8.44
2023-03-27T05:35:52.080Z,8.51
2023-03-27T05:36:52.052Z,8.42
2023-03-27T05:37:52.049Z,8.42
2023-03-27T05:38:52.035Z,8.54
2023-03-27T05:39:52.020Z,8.54
2023-03-27T05:40:52.012Z,8.62
2023-03-27T05:41:52.006Z,8.98
2023-03-27T05:42:52.017Z,8.93
2023-03-27T05:43:51.988Z,8.90
2023-03-27T05:44:51.967Z,8.80
2023-03-27T05:45:52.028Z,8.59
2023-03-27T05:46:51.961Z,8.72
2023-03-27T05:47:52.043Z,8.70
2023-03-27T05:48:51.929Z,8.63
2023-03-27T05:49:51.917Z,8.77
2023-03-27T05:50:51.917Z,8.70
2023-03-27T05:51:51.910Z,8.64
2023-03-27T05:52:51.890Z,8.70
2023-03-27T05:53:51.878Z,8.67
2023-03-27T05:54:51.869Z,8.66
2023-03-27T05:56:02.971Z,8.69
2023-03-27T05:56:52.903Z,8.67
2023-03-27T05:57:51.834Z,8.49
2023-03-27T05:58:51.847Z,8.59
2023-03-27T05:59:51.818Z,8.67
2023-03-27T06:00:51.804Z,8.73
2023-03-27T06:01:51.797Z,8.81
2023-03-27T06:02:51.858Z,8.91
2023-03-27T06:03:51.930Z,8.96
2023-03-27T06:04:51.767Z,8.88
2023-03-27T06:05:51.758Z,8.96
2023-03-27T06:06:51.754Z,8.84
2023-03-27T06:07:51.736Z,8.88
2023-03-27T06:08:51.728Z,8.70
2023-03-27T06:09:51.714Z,8.81
2023-03-27T06:10:51.703Z,8.70
2023-03-27T06:11:51.690Z,8.70
2023-03-27T06:12:51.688Z,8.64
2023-03-27T06:13:51.671Z,8.63
2023-03-27T06:14:51.735Z,8.63
2023-03-27T06:15:51.696Z,8.63
2023-03-27T06:16:51.644Z,8.62
2023-03-27T06:17:51.660Z,8.52
2023-03-27T06:18:51.653Z,8.66
2023-03-27T06:19:51.617Z,8.82
2023-03-27T06:20:51.604Z,8.87
2023-03-27T06:21:51.598Z,8.81
2023-03-27T06:22:51.584Z,8.85
2023-03-27T06:23:51.573Z,8.85
2023-03-27T06:24:51.564Z,8.70
2023-03-27T06:25:51.554Z,8.78
2023-03-27T06:26:51.547Z,8.72
2023-03-27T06:27:51.532Z,8.75
2023-03-27T06:28:51.520Z,8.81
2023-03-27T06:29:51.514Z,8.85
2023-03-27T06:30:51.665Z,8.82
2023-03-27T06:31:51.496Z,8.87
2023-03-27T06:32:51.551Z,8.80
2023-03-27T06:33:51.472Z,8.87
2023-03-27T06:34:51.465Z,8.77
2023-03-27T06:35:52.896Z,8.78
2023-03-27T06:36:51.474Z,8.82
2023-03-27T06:37:51.548Z,8.84
2023-03-27T06:38:51.424Z,8.85
2023-03-27T06:39:51.418Z,8.73
2023-03-27T06:40:51.402Z,8.77
2023-03-27T06:41:51.398Z,8.73
2023-03-27T06:42:51.382Z,8.77
2023-03-27T06:43:51.382Z,8.81
2023-03-27T06:44:51.367Z,8.81
2023-03-27T06:45:51.354Z,8.91
2023-03-27T06:46:51.411Z,8.93
2023-03-27T06:47:54.866Z,8.98
2023-03-27T06:48:51.466Z,9.06
2023-03-27T06:49:51.312Z,9.14
2023-03-27T06:50:51.308Z,9.18
2023-03-27T06:51:51.306Z,9.20
2023-03-27T06:52:51.302Z,9.15
2023-03-27T06:53:51.278Z,9.21
2023-03-27T06:54:51.273Z,9.21
2023-03-27T06:55:51.273Z,9.24
2023-03-27T06:56:51.285Z,9.31
2023-03-27T06:57:51.243Z,9.38
2023-03-27T06:58:51.235Z,9.32
2023-03-27T06:59:51.214Z,9.39
2023-03-27T07:00:51.311Z,9.41
2023-03-27T07:01:51.250Z,9.51
2023-03-27T07:02:51.230Z,9.56
2023-03-27T07:03:51.171Z,9.56
2023-03-27T07:05:01.572Z,9.56
2023-03-27T07:05:52.229Z,9.66
2023-03-27T07:06:51.156Z,9.57
2023-03-27T07:07:51.138Z,9.58
2023-03-27T07:08:51.124Z,9.56
2023-03-27T07:09:51.111Z,9.68
2023-03-27T07:11:03.786Z,9.80
2023-03-27T07:11:52.121Z,9.76
2023-03-27T07:12:51.079Z,9.83
2023-03-27T07:13:51.079Z,9.85
2023-03-27T07:14:51.056Z,9.90
2023-03-27T07:15:51.041Z,9.94
2023-03-27T07:16:51.115Z,9.83
2023-03-27T07:17:51.038Z,9.97
2023-03-27T07:18:51.034Z,9.94
2023-03-27T07:19:51.004Z,10.02
2023-03-27T07:20:51.012Z,9.91
2023-03-27T07:21:50.999Z,9.98
2023-03-27T07:22:50.971Z,9.94
2023-03-27T07:23:50.963Z,9.91
2023-03-27T07:24:50.951Z,9.98
2023-03-27T07:25:50.938Z,10.19
2023-03-27T07:26:50.940Z,10.12
2023-03-27T07:27:50.926Z,10.04
2023-03-27T07:28:50.907Z,10.06
2023-03-27T07:29:50.899Z,10.19
2023-03-27T07:30:50.890Z,10.16
2023-03-27T07:32:51.019Z,10.31
2023-03-27T07:33:50.985Z,10.31
2023-03-27T07:34:50.869Z,10.19
2023-03-27T07:35:50.947Z,10.41
2023-03-27T07:36:50.833Z,10.34
2023-03-27T07:37:50.838Z,10.34
2023-03-27T07:38:50.810Z,10.37
2023-03-27T07:39:50.802Z,10.34
2023-03-27T07:40:50.794Z,10.41
2023-03-27T07:41:50.795Z,10.53
2023-03-27T07:42:50.769Z,10.49
2023-03-27T07:43:50.760Z,10.51
2023-03-27T07:44:50.754Z,10.59
2023-03-27T07:45:50.802Z,10.69
2023-03-27T07:46:50.731Z,10.66
2023-03-27T07:47:50.752Z,10.64
2023-03-27T07:48:50.717Z,10.66
2023-03-27T07:49:50.701Z,10.64
2023-03-27T07:50:51.015Z,10.66
2023-03-27T07:51:50.679Z,10.71
2023-03-27T07:52:50.671Z,10.85
2023-03-27T07:53:50.663Z,10.81
2023-03-27T07:54:50.651Z,10.84
2023-03-27T07:55:50.639Z,10.78
2023-03-27T07:56:50.748Z,10.76
2023-03-27T07:58:00.673Z,10.67
2023-03-27T07:58:51.632Z,10.82
2023-03-27T07:59:50.602Z,10.91
2023-03-27T08:00:50.590Z,10.94
2023-03-27T08:01:50.598Z,10.77
2023-03-27T08:02:50.688Z,10.73
2023-03-27T08:03:50.751Z,10.84
2023-03-27T08:04:50.761Z,10.76
2023-03-27T08:05:50.537Z,10.84
2023-03-27T08:06:50.551Z,10.89
2023-03-27T08:07:50.516Z,10.99
2023-03-27T08:08:50.506Z,10.92
2023-03-27T08:09:50.497Z,11.04
2023-03-27T08:10:50.499Z,11.14
2023-03-27T08:11:50.481Z,11.13
2023-03-27T08:12:50.457Z,11.19
2023-03-27T08:13:50.448Z,11.10
2023-03-27T08:14:50.443Z,11.04
2023-03-27T08:15:50.429Z,10.81
2023-03-27T08:16:50.481Z,10.77
2023-03-27T08:17:50.435Z,10.99
2023-03-27T08:18:50.402Z,11.07
2023-03-27T08:19:50.392Z,10.99
2023-03-27T08:20:50.380Z,11.06
2023-03-27T08:21:50.365Z,11.13
2023-03-27T08:22:50.383Z,11.07
2023-03-27T08:23:50.345Z,11.13
2023-03-27T08:24:50.337Z,11.32
2023-03-27T08:25:50.325Z,11.26
2023-03-27T08:26:50.362Z,11.19
2023-03-27T08:27:50.353Z,11.11
2023-03-27T08:28:50.296Z,11.13
2023-03-27T08:29:50.280Z,11.04
2023-03-27T08:30:50.285Z,11.25
2023-03-27T08:31:50.271Z,11.48
2023-03-27T08:32:50.301Z,11.87
2023-03-27T08:33:50.245Z,11.63
2023-03-27T08:34:50.236Z,11.81
2023-03-27T08:35:50.278Z,11.65
2023-03-27T08:36:50.227Z,11.71
2023-03-27T08:37:50.206Z,11.72
2023-03-27T08:38:50.217Z,11.77
2023-03-27T08:39:50.199Z,11.90
2023-03-27T08:40:50.180Z,12.08
2023-03-27T08:41:50.164Z,12.12
2023-03-27T08:42:50.154Z,12.08
2023-03-27T08:43:50.146Z,11.98
2023-03-27T08:44:50.135Z,11.94
2023-03-27T08:45:50.121Z,12.05
2023-03-27T08:46:50.226Z,11.88
2023-03-27T08:47:50.181Z,11.87
2023-03-27T08:48:50.097Z,11.81
2023-03-27T08:49:50.083Z,11.91
2023-03-27T08:50:50.070Z,11.99
2023-03-27T08:51:50.062Z,12.05
2023-03-27T08:52:50.049Z,12.12
2023-03-27T08:53:50.044Z,12.02
2023-03-27T08:54:50.060Z,12.19
2023-03-27T08:55:50.023Z,12.20
2023-03-27T08:56:50.036Z,12.27
2023-03-27T08:57:50.000Z,12.29
2023-03-27T08:58:50.009Z,12.50
2023-03-27T08:59:49.985Z,12.75
2023-03-27T09:00:49.978Z,12.93
2023-03-27T09:01:50.047Z,12.71
2023-03-27T09:02:50.003Z,12.45
2023-03-27T09:03:50.079Z,12.75
2023-03-27T09:04:49.932Z,12.59
2023-03-27T09:05:49.922Z,12.41
2023-03-27T09:06:49.927Z,12.49
2023-03-27T09:07:49.908Z,12.34
2023-03-27T09:08:49.889Z,12.52
2023-03-27T09:09:49.880Z,12.35
2023-03-27T09:10:49.906Z,12.60
2023-03-27T09:11:49.860Z,12.73
2023-03-27T09:12:49.854Z,12.85
2023-03-27T09:13:49.846Z,12.52
2023-03-27T09:14:49.831Z,12.38
2023-03-27T09:15:49.843Z,11.96
2023-03-27T09:16:50.135Z,12.38
2023-03-27T09:17:49.818Z,12.45
2023-03-27T09:18:49.786Z,12.52
2023-03-27T09:19:49.778Z,12.78
2023-03-27T09:20:49.766Z,12.87
2023-03-27T09:21:49.761Z,13.22
2023-03-27T09:22:49.753Z,13.42
2023-03-27T09:23:49.738Z,13.48
2023-03-27T09:24:49.830Z,13.38
2023-03-27T09:25:49.719Z,13.49
2023-03-27T09:26:58.039Z,13.22
2023-03-27T09:27:50.724Z,13.08
2023-03-27T09:28:49.691Z,13.12
2023-03-27T09:29:49.680Z,13.03
2023-03-27T09:30:49.672Z,13.05
2023-03-27T09:31:49.721Z,12.64
2023-03-27T09:32:49.725Z,12.80
2023-03-27T09:33:49.644Z,13.12
2023-03-27T09:34:49.630Z,13.15
2023-03-27T09:35:49.642Z,13.11
2023-03-27T09:36:49.606Z,12.73
2023-03-27T09:37:49.597Z,12.53
2023-03-27T09:38:49.587Z,12.57
2023-03-27T09:39:49.577Z,12.98
2023-03-27T09:40:49.569Z,13.46
2023-03-27T09:41:49.563Z,13.48
2023-03-27T09:42:49.575Z,14.10
2023-03-27T09:43:49.553Z,14.58
2023-03-27T09:44:49.531Z,14.28
2023-03-27T09:45:49.520Z,14.28
2023-03-27T09:46:49.606Z,13.94
2023-03-27T09:47:49.552Z,14.13
2023-03-27T09:48:49.487Z,14.63
2023-03-27T09:49:49.474Z,14.81
2023-03-27T09:50:49.507Z,14.58
2023-03-27T09:51:49.470Z,14.51
2023-03-27T09:52:49.446Z,14.43
2023-03-27T09:53:49.438Z,14.04
2023-03-27T09:54:49.436Z,14.15
2023-03-27T09:55:49.420Z,13.99
2023-03-27T09:56:49.452Z,14.00
2023-03-27T09:57:49.399Z,13.74
2023-03-27T09:58:49.468Z,13.45
2023-03-27T09:59:49.380Z,13.52
2023-03-27T10:00:49.390Z,13.31
2023-03-27T10:01:49.362Z,13.76
2023-03-27T10:02:49.401Z,13.94
2023-03-27T10:03:49.440Z,14.51
2023-03-27T10:04:49.329Z,15.01
2023-03-27T10:05:49.316Z,15.54
2023-03-27T10:06:49.315Z,15.45
2023-03-27T10:07:49.305Z,15.57
2023-03-27T10:08:49.290Z,15.80
2023-03-27T10:09:49.278Z,15.06
2023-03-27T10:10:49.272Z,15.23
2023-03-27T10:11:49.265Z,15.51
2023-03-27T10:12:49.252Z,15.05
2023-03-27T10:13:49.241Z,14.83
2023-03-27T10:14:51.833Z,14.40
2023-03-27T10:15:49.217Z,14.32
2023-03-27T10:16:49.246Z,14.53
2023-03-27T10:17:49.305Z,14.70
2023-03-27T10:18:49.208Z,15.11
2023-03-27T10:19:49.178Z,15.38
2023-03-27T10:20:49.174Z,15.02
2023-03-27T10:21:49.163Z,15.05
2023-03-27T10:22:49.161Z,14.69
2023-03-27T10:23:49.209Z,14.90
2023-03-27T10:24:49.151Z,15.29
2023-03-27T10:25:49.129Z,15.85
2023-03-27T10:26:49.124Z,16.46
2023-03-27T10:27:49.102Z,16.48
2023-03-27T10:28:49.126Z,16.99
2023-03-27T10:29:49.083Z,16.33
2023-03-27T10:30:49.097Z,15.62
2023-03-27T10:31:49.119Z,15.76
2023-03-27T10:32:49.107Z,15.65
2023-03-27T10:33:49.044Z,15.21
2023-03-27T10:34:49.035Z,15.10
2023-03-27T10:35:49.073Z,15.57
2023-03-27T10:36:49.013Z,16.25
2023-03-27T10:37:50.432Z,16.25
2023-03-27T10:38:49.010Z,15.68
2023-03-27T10:39:48.994Z,15.11
2023-03-27T10:40:48.975Z,15.20
2023-03-27T10:41:48.968Z,15.75
2023-03-27T10:42:48.953Z,15.60
2023-03-27T10:43:48.952Z,15.48
2023-03-27T10:44:48.937Z,14.94
2023-03-27T10:45:48.966Z,15.38
2023-03-27T10:46:48.946Z,15.88
2023-03-27T10:47:48.962Z,15.29
2023-03-27T10:48:48.901Z,15.36
2023-03-27T10:49:48.894Z,15.73
2023-03-27T10:50:48.871Z,15.92
2023-03-27T10:51:48.867Z,16.24
2023-03-27T10:52:48.866Z,16.61
2023-03-27T10:53:48.957Z,16.31
2023-03-27T10:54:48.841Z,16.63
2023-03-27T10:55:48.830Z,16.35
2023-03-27T10:56:48.850Z,16.90
2023-03-27T10:57:48.848Z,17.17
2023-03-27T10:58:48.823Z,17.85
2023-03-27T10:59:48.868Z,17.75
2023-03-27T11:00:48.814Z,17.31
2023-03-27T11:01:48.841Z,16.02
2023-03-27T11:02:48.833Z,16.00
2023-03-27T11:03:48.857Z,15.92
2023-03-27T11:04:48.741Z,15.97
2023-03-27T11:05:48.733Z,16.15
2023-03-27T11:06:48.716Z,16.30
2023-03-27T11:07:48.704Z,17.08
2023-03-27T11:08:48.695Z,17.49
2023-03-27T11:09:48.683Z,17.09
2023-03-27T11:10:48.673Z,17.12
2023-03-27T11:11:48.664Z,18.00
2023-03-27T11:12:48.667Z,18.41
2023-03-27T11:13:48.647Z,18.55
2023-03-27T11:14:48.642Z,18.46
2023-03-27T11:15:48.624Z,18.43
2023-03-27T11:17:48.674Z,17.74
2023-03-27T11:18:48.617Z,17.02
2023-03-27T11:19:48.582Z,17.12
2023-03-27T11:20:48.572Z,17.20
2023-03-27T11:21:48.572Z,17.26
2023-03-27T11:22:48.558Z,17.42
2023-03-27T11:23:48.544Z,17.63
2023-03-27T11:24:48.541Z,16.93
2023-03-27T11:25:48.526Z,16.43
2023-03-27T11:26:48.514Z,16.79
2023-03-27T11:27:48.509Z,17.26
2023-03-27T11:28:48.498Z,17.37
2023-03-27T11:29:48.488Z,17.19
2023-03-27T11:30:48.526Z,17.45
2023-03-27T11:31:48.590Z,18.06
2023-03-27T11:32:48.472Z,18.22
2023-03-27T11:33:48.446Z,17.90
2023-03-27T11:34:48.496Z,17.67
2023-03-27T11:35:48.443Z,17.51
2023-03-27T11:36:48.421Z,17.62
2023-03-27T11:37:48.409Z,17.85
2023-03-27T11:38:48.401Z,17.69
2023-03-27T11:39:48.409Z,17.97
2023-03-27T11:40:48.408Z,18.43
2023-03-27T11:41:48.370Z,18.35
2023-03-27T11:42:48.368Z,18.48
2023-03-27T11:43:48.350Z,18.29
2023-03-27T11:45:48.335Z,17.75
2023-03-27T11:46:48.327Z,17.06
2023-03-27T11:47:48.340Z,16.86
2023-03-27T11:48:48.307Z,16.71
2023-03-27T11:49:48.299Z,17.16
2023-03-27T11:51:27.166Z,17.38
2023-03-27T11:51:48.283Z,17.49
2023-03-27T11:52:48.281Z,17.35
2023-03-27T11:53:48.264Z,17.99
2023-03-27T11:55:57.857Z,18.30
2023-03-27T11:55:59.278Z,18.18
2023-03-27T11:56:59.311Z,18.38
2023-03-27T12:11:03.554Z,18.56
2023-03-27T16:50:57.815Z,17.41
2023-03-27T16:50:59.371Z,14.51
2023-03-27T16:51:59.213Z,14.77
2023-03-27T16:52:59.208Z,14.36
2023-03-27T16:53:59.197Z,14.30
2023-03-27T16:55:44.593Z,14.36
2023-03-27T16:55:59.531Z,14.55
2023-03-27T16:56:59.197Z,14.70
2023-03-27T16:57:59.155Z,14.20
2023-03-27T16:58:59.142Z,14.10
2023-03-27T16:59:59.130Z,14.44
2023-03-27T17:00:59.145Z,14.70
2023-03-27T17:01:59.116Z,14.76
2023-03-27T17:02:59.118Z,14.83
2023-03-27T17:03:59.108Z,14.66
2023-03-27T17:04:59.128Z,14.58
2023-03-27T17:05:59.140Z,14.13
2023-03-27T17:06:59.095Z,13.74
2023-03-27T17:07:59.056Z,13.69
2023-03-27T17:08:59.040Z,13.82
2023-03-27T17:09:59.036Z,13.54
2023-03-27T17:10:59.026Z,13.52
2023-03-27T17:11:59.012Z,13.33
2023-03-27T17:12:59.002Z,13.11
2023-03-27T17:13:58.999Z,13.36
2023-03-27T17:14:58.983Z,13.46
2023-03-27T17:15:59.256Z,13.26
2023-03-27T17:16:58.991Z,12.72
2023-03-27T17:17:59.066Z,12.53
2023-03-27T17:18:58.937Z,12.41
2023-03-27T17:19:58.932Z,12.45
2023-03-27T17:20:58.920Z,12.39
2023-03-27T17:21:58.910Z,12.57
2023-03-27T17:22:58.942Z,12.57
2023-03-27T17:23:59.643Z,12.59
2023-03-27T17:24:58.877Z,12.76
2023-03-27T17:25:58.984Z,12.76
2023-03-27T17:26:58.856Z,12.65
2023-03-27T17:27:58.852Z,12.49
2023-03-27T17:28:58.841Z,12.17
2023-03-27T17:29:58.858Z,11.90
2023-03-27T17:31:04.454Z,11.54
2023-03-27T17:31:58.871Z,11.07
2023-03-27T17:32:58.872Z,11.00
2023-03-27T17:33:58.786Z,10.96
2023-03-27T17:34:58.786Z,10.76
2023-03-27T17:35:59.049Z,10.51
2023-03-27T17:36:58.758Z,10.38
2023-03-27T17:37:58.757Z,10.27
2023-03-27T17:38:58.766Z,10.18
2023-03-27T17:39:58.742Z,10.06
2023-03-27T17:40:58.717Z,9.97
2023-03-27T17:41:58.717Z,9.90
2023-03-27T17:42:58.704Z,9.85
2023-03-27T17:43:58.686Z,9.58
2023-03-27T17:44:58.675Z,9.56
2023-03-27T17:45:58.916Z,9.50
2023-03-27T17:46:58.658Z,9.46
2023-03-27T17:47:58.685Z,9.36
2023-03-27T17:48:58.637Z,9.35
2023-03-27T17:49:58.625Z,9.32
2023-03-27T17:51:09.028Z,9.28
2023-03-27T17:51:59.630Z,9.31
2023-03-27T17:52:58.603Z,9.27
2023-03-27T17:53:58.596Z,9.21
2023-03-27T17:54:59.981Z,9.23
2023-03-27T17:55:58.836Z,9.13
2023-03-27T17:56:58.576Z,9.13
2023-03-27T17:58:08.385Z,9.07
2023-03-27T17:58:59.553Z,8.98
2023-03-27T17:59:58.519Z,8.93
2023-03-27T18:00:58.518Z,8.95
2023-03-27T18:01:58.559Z,8.88
2023-03-27T18:02:58.550Z,8.78
2023-03-27T18:03:58.544Z,8.80
2023-03-27T18:04:58.468Z,8.80
2023-03-27T18:05:58.917Z,8.72
2023-03-27T18:06:58.455Z,8.72
2023-03-27T18:07:58.445Z,8.70
2023-03-27T18:08:58.434Z,8.69
2023-03-27T18:09:58.423Z,8.69
2023-03-27T18:10:58.514Z,8.66
2023-03-27T18:11:58.401Z,8.62
2023-03-27T18:12:58.389Z,8.49
2023-03-27T18:13:58.381Z,8.42
2023-03-27T18:14:58.376Z,8.39
2023-03-27T18:15:58.754Z,8.33
2023-03-27T18:16:58.353Z,8.26
2023-03-27T18:18:58.330Z,8.30
2023-03-27T18:22:58.289Z,8.22
2023-03-27T18:23:58.276Z,8.10
2023-03-27T18:29:58.225Z,8.11
2023-03-27T18:30:58.205Z,8.08
2023-03-27T18:31:58.260Z,8.08
2023-03-27T18:32:58.228Z,8.05
2023-03-27T18:33:58.195Z,8.10
